createdAt,value
2017-09-13T00:03:15.130Z,90.50
2017-09-13T00:08:18.319Z,89.10
2017-09-13T00:13:21.521Z,88.20
2017-09-13T00:18:24.743Z,88.40
2017-09-13T00:23:27.967Z,88.40
2017-09-13T00:28:31.167Z,88.60
2017-09-13T00:33:34.374Z,88.70
2017-09-13T00:38:37.586Z,89.50
2017-09-13T00:43:40.757Z,89.30
2017-09-13T00:48:43.975Z,90.40
2017-09-13T00:53:47.170Z,91.10
2017-09-13T00:58:50.427Z,90.70
2017-09-13T01:03:53.636Z,90.90
2017-09-13T01:08:56.858Z,91.40
2017-09-13T01:14:00.081Z,91.60
2017-09-13T01:19:03.277Z,90.60
2017-09-13T01:24:07.396Z,87.90
2017-09-13T01:29:10.602Z,87.90
2017-09-13T01:34:13.824Z,87.10
2017-09-13T01:39:17.796Z,85.80
2017-09-13T01:44:21.056Z,85.80
2017-09-13T01:49:24.340Z,85.90
2017-09-13T01:54:27.560Z,86.10
2017-09-13T01:59:30.781Z,84.70
2017-09-13T02:04:34.740Z,84.20
2017-09-13T02:09:37.956Z,84.20
2017-09-13T02:14:41.145Z,84.10
2017-09-13T02:19:44.355Z,83.50
2017-09-13T02:24:47.535Z,83.10
2017-09-13T02:29:50.760Z,82.80
2017-09-13T02:34:53.968Z,83.40
2017-09-13T02:39:57.233Z,83.30
2017-09-13T02:45:00.451Z,82.20
2017-09-13T02:50:03.639Z,81.60
2017-09-13T02:55:06.873Z,81.30
2017-09-13T03:00:10.843Z,79.60
2017-09-13T03:05:14.069Z,79.60
2017-09-13T03:10:17.271Z,79.60
2017-09-13T03:15:20.521Z,79.50
2017-09-13T03:20:23.730Z,79.30
2017-09-13T03:25:27.715Z,78.20
2017-09-13T03:30:30.921Z,78.20
2017-09-13T03:35:34.137Z,78.00
2017-09-13T03:40:37.485Z,77.50
2017-09-13T03:45:40.698Z,77.40
2017-09-13T03:50:43.916Z,77.30
2017-09-13T03:55:47.124Z,77.30
2017-09-13T04:00:50.349Z,76.70
2017-09-13T04:05:53.638Z,77.10
2017-09-13T04:10:56.833Z,77.30
2017-09-13T04:16:00.092Z,77.80
2017-09-13T04:21:03.340Z,78.10
2017-09-13T04:26:07.466Z,83.00
2017-09-13T04:31:11.405Z,83.70
2017-09-13T04:36:14.637Z,83.80
2017-09-13T04:41:17.861Z,84.30
2017-09-13T04:46:21.072Z,85.40
2017-09-13T04:51:24.275Z,89.20
2017-09-13T04:56:27.497Z,90.60
2017-09-13T05:01:30.732Z,90.80
2017-09-13T05:06:34.683Z,89.10
2017-09-13T05:11:38.002Z,88.70
2017-09-13T05:16:41.191Z,86.00
2017-09-13T05:21:44.383Z,85.10
2017-09-13T05:26:48.340Z,84.50
2017-09-13T05:31:51.552Z,84.30
2017-09-13T05:36:54.738Z,84.30
2017-09-13T05:41:57.921Z,83.60
2017-09-13T05:47:01.890Z,85.40
2017-09-13T05:52:05.092Z,85.30
2017-09-13T05:57:08.281Z,84.70
2017-09-13T06:02:11.458Z,85.10
2017-09-13T06:07:15.465Z,86.10
2017-09-13T06:12:18.680Z,86.10
2017-09-13T06:17:21.864Z,87.10
2017-09-13T06:22:25.075Z,90.40
2017-09-13T06:27:28.367Z,92.20
2017-09-13T06:32:31.608Z,94.40
2017-09-13T06:37:34.793Z,95.20
2017-09-13T06:42:37.999Z,96.70
2017-09-13T06:47:41.173Z,97.20
2017-09-13T06:52:44.485Z,96.00
2017-09-13T06:57:47.696Z,95.30
2017-09-13T07:02:50.881Z,94.60
2017-09-13T07:07:54.065Z,94.40
2017-09-13T07:12:58.154Z,93.60
2017-09-13T07:18:01.343Z,93.60
2017-09-13T07:23:04.594Z,93.40
2017-09-13T07:28:07.796Z,93.20
2017-09-13T07:33:10.980Z,93.40
2017-09-13T07:38:14.212Z,95.20
2017-09-13T07:43:17.425Z,96.10
2017-09-13T07:48:20.625Z,96.70
2017-09-13T07:53:23.806Z,95.40
2017-09-13T07:58:27.012Z,96.20
2017-09-13T08:03:30.229Z,96.60
2017-09-13T08:08:33.428Z,96.20
2017-09-13T08:13:36.635Z,96.10
2017-09-13T08:18:39.868Z,95.80
2017-09-13T08:23:43.071Z,95.80
2017-09-13T08:28:46.263Z,96.90
2017-09-13T08:33:49.487Z,97.50
2017-09-13T08:38:52.696Z,98.30
2017-09-13T08:43:56.707Z,99.90
2017-09-13T08:48:59.906Z,99.90
2017-09-13T08:54:03.141Z,99.90
2017-09-13T08:59:07.113Z,99.90
2017-09-13T09:04:10.318Z,99.90
2017-09-13T09:09:13.539Z,99.90
2017-09-13T09:14:16.764Z,99.90
2017-09-13T09:19:19.988Z,99.90
2017-09-13T09:24:23.977Z,99.90
2017-09-13T09:29:27.188Z,99.90
2017-09-13T09:34:30.393Z,99.90
2017-09-13T09:41:55.035Z,98.70
2017-09-13T09:46:59.011Z,96.10
2017-09-13T09:52:02.227Z,96.10
2017-09-13T09:57:05.422Z,96.70
2017-09-13T10:02:08.858Z,96.80
2017-09-13T10:07:12.050Z,95.60
2017-09-13T10:12:15.229Z,94.70
2017-09-13T10:17:18.449Z,95.20
2017-09-13T10:22:21.710Z,94.60
2017-09-13T10:27:24.922Z,94.70
2017-09-13T10:32:28.132Z,93.60
2017-09-13T10:37:32.116Z,92.80
2017-09-13T10:42:35.312Z,92.80
2017-09-13T10:47:38.581Z,92.20
2017-09-13T10:52:42.561Z,92.50
2017-09-13T10:57:45.759Z,92.50
2017-09-13T11:02:48.972Z,92.50
2017-09-13T11:07:52.174Z,92.50
2017-09-13T11:12:55.473Z,93.80
2017-09-13T11:17:58.697Z,98.00
2017-09-13T11:23:01.886Z,99.90
2017-09-13T11:28:05.086Z,99.90
2017-09-13T11:33:08.277Z,99.90
2017-09-13T11:38:11.495Z,99.90
2017-09-13T11:43:14.693Z,99.90
2017-09-13T11:48:17.912Z,98.00
2017-09-13T11:53:21.135Z,93.80
2017-09-13T11:58:24.331Z,90.70
2017-09-13T12:03:27.610Z,84.90
2017-09-13T12:08:31.578Z,73.00
2017-09-13T12:13:35.522Z,73.10
2017-09-13T12:18:38.741Z,69.20
2017-09-13T12:23:41.977Z,69.60
2017-09-13T12:28:45.189Z,68.30
2017-09-13T12:33:48.483Z,68.40
2017-09-13T12:38:52.455Z,67.50
2017-09-13T12:43:55.621Z,67.00
2017-09-13T12:48:58.844Z,63.10
2017-09-13T12:54:02.071Z,65.00
2017-09-13T12:59:05.290Z,62.30
2017-09-13T13:04:08.496Z,61.70
2017-09-13T13:09:11.764Z,61.10
2017-09-13T13:14:15.114Z,63.60
2017-09-13T13:19:18.319Z,63.30
2017-09-13T13:24:21.539Z,64.00
2017-09-13T13:29:25.094Z,64.30
2017-09-13T13:34:29.103Z,61.30
2017-09-13T13:39:32.297Z,61.30
2017-09-13T13:44:35.510Z,54.00
2017-09-13T13:49:38.730Z,50.50
2017-09-13T13:54:42.726Z,48.50
2017-09-13T13:59:45.975Z,48.50
2017-09-13T14:04:49.950Z,49.00
2017-09-13T14:09:53.167Z,49.10
2017-09-13T14:14:56.377Z,48.00
2017-09-13T14:19:59.599Z,46.60
2017-09-13T14:25:02.833Z,48.40
2017-09-13T14:30:06.801Z,48.60
2017-09-13T14:35:10.013Z,48.60
2017-09-13T14:40:13.341Z,49.10
2017-09-13T14:45:16.535Z,50.70
2017-09-13T14:50:19.761Z,52.30
2017-09-13T14:55:22.981Z,53.90
2017-09-13T15:00:26.971Z,63.00
2017-09-13T15:05:30.197Z,63.00
2017-09-13T15:10:33.393Z,65.80
2017-09-13T15:15:36.584Z,71.00
2017-09-13T15:20:39.812Z,74.80
2017-09-13T15:25:43.262Z,80.50
2017-09-13T15:30:46.496Z,84.80
2017-09-13T15:35:49.721Z,84.60
2017-09-13T15:40:53.036Z,87.20
2017-09-13T15:45:56.305Z,88.30
2017-09-13T15:50:59.549Z,90.20
2017-09-13T15:56:02.758Z,90.30
2017-09-13T16:01:05.978Z,91.40
2017-09-13T16:06:09.239Z,90.70
2017-09-13T16:11:12.482Z,89.80
2017-09-13T16:16:15.727Z,89.50
2017-09-13T16:21:19.746Z,89.10
2017-09-13T16:26:22.994Z,89.00
2017-09-13T16:31:26.217Z,89.20
2017-09-13T16:36:29.796Z,89.00
2017-09-13T16:41:33.022Z,88.70
2017-09-13T16:46:36.305Z,84.80
2017-09-13T16:51:40.261Z,85.20
2017-09-13T16:56:43.504Z,85.00
2017-09-13T17:01:46.718Z,86.20
2017-09-13T17:06:49.989Z,85.40
2017-09-13T17:11:53.184Z,85.50
2017-09-13T17:16:56.414Z,87.60
2017-09-13T17:21:59.643Z,89.80
2017-09-13T17:27:02.903Z,91.80
2017-09-13T17:32:06.156Z,92.40
2017-09-13T17:37:09.590Z,93.80
2017-09-13T17:42:13.583Z,97.50
2017-09-13T17:47:16.797Z,97.20
2017-09-13T17:52:20.001Z,97.30
2017-09-13T17:57:23.227Z,96.80
2017-09-13T18:02:26.403Z,97.40
2017-09-13T18:07:29.642Z,97.20
2017-09-13T18:12:33.619Z,98.80
2017-09-13T18:17:36.850Z,98.30
2017-09-13T18:22:40.067Z,99.10
2017-09-13T18:27:43.292Z,99.90
2017-09-13T18:32:47.265Z,99.90
2017-09-13T18:37:50.464Z,99.90
2017-09-13T18:42:53.685Z,99.50
2017-09-13T18:47:56.910Z,99.90
2017-09-13T18:53:00.140Z,99.90
2017-09-13T18:58:04.117Z,99.90
2017-09-13T19:03:07.417Z,99.90
2017-09-13T19:08:10.640Z,99.90
2017-09-13T19:13:13.866Z,99.30
2017-09-13T19:18:17.143Z,99.50
2017-09-13T19:23:20.415Z,99.30
2017-09-13T19:28:23.624Z,99.70
2017-09-13T19:33:26.849Z,99.20
2017-09-13T19:38:30.193Z,99.90
2017-09-13T19:43:33.415Z,99.90
2017-09-13T19:48:36.655Z,99.90
2017-09-13T19:53:40.066Z,99.90
2017-09-13T19:58:44.084Z,99.90
2017-09-13T20:03:48.064Z,99.90
2017-09-13T20:08:51.515Z,99.90
2017-09-13T20:13:55.521Z,99.90
2017-09-13T20:18:58.722Z,99.90
2017-09-13T20:24:01.938Z,99.90
2017-09-13T20:29:05.217Z,99.90
2017-09-13T20:34:08.500Z,99.90
2017-09-13T20:39:11.821Z,99.90
2017-09-13T20:44:15.056Z,99.90
2017-09-13T20:49:18.271Z,99.90
2017-09-13T20:54:21.486Z,99.90
2017-09-13T20:59:24.692Z,99.90
2017-09-13T21:04:27.960Z,99.90
2017-09-13T21:09:31.191Z,99.90
2017-09-13T21:14:34.397Z,99.90
2017-09-13T21:19:37.595Z,99.90
2017-09-13T21:24:40.902Z,99.90
2017-09-13T21:29:44.146Z,99.90
2017-09-13T21:34:48.168Z,99.90
2017-09-13T21:39:51.390Z,99.90
2017-09-13T21:44:55.357Z,99.90
2017-09-13T21:49:58.566Z,99.90
2017-09-13T21:55:01.782Z,99.90
2017-09-13T22:00:05.000Z,99.90
2017-09-13T22:05:08.230Z,99.90
2017-09-13T22:10:11.430Z,99.90
2017-09-13T22:15:14.757Z,99.90
2017-09-13T22:20:18.110Z,99.90
2017-09-13T22:25:21.373Z,99.90
2017-09-13T22:30:25.365Z,99.90
2017-09-13T22:35:28.634Z,99.90
2017-09-13T22:40:31.866Z,99.90
2017-09-13T22:45:35.071Z,99.90
2017-09-13T22:50:38.284Z,99.90
2017-09-13T22:55:41.534Z,99.90
2017-09-13T23:00:45.602Z,99.90
2017-09-13T23:05:48.804Z,99.90
2017-09-13T23:10:52.006Z,99.90
2017-09-13T23:15:55.212Z,99.90
2017-09-13T23:20:58.407Z,99.90
2017-09-13T23:26:01.677Z,99.90
2017-09-13T23:31:04.893Z,99.90
2017-09-13T23:36:08.122Z,99.90
2017-09-13T23:41:12.212Z,99.90
2017-09-13T23:46:15.413Z,99.90
2017-09-13T23:51:18.755Z,99.90
2017-09-13T23:56:22.720Z,99.90
